createdAt,value
2019-03-22T00:00:58.973Z,1.67
2019-03-22T00:03:25.832Z,1.66
2019-03-22T00:05:52.684Z,1.62
2019-03-22T00:08:19.547Z,1.60
2019-03-22T00:10:46.508Z,1.58
2019-03-22T00:13:13.372Z,1.55
2019-03-22T00:15:40.239Z,1.50
2019-03-22T00:18:07.103Z,1.43
2019-03-22T00:20:34.058Z,1.39
2019-03-22T00:23:00.948Z,1.35
2019-03-22T00:25:27.880Z,1.30
2019-03-22T00:27:54.851Z,1.25
2019-03-22T00:30:21.707Z,1.21
2019-03-22T00:32:48.591Z,1.18
2019-03-22T00:35:15.451Z,1.15
2019-03-22T00:37:42.427Z,1.12
2019-03-22T00:40:28.524Z,1.08
2019-03-22T00:42:55.515Z,1.04
2019-03-22T00:45:22.472Z,1.01
2019-03-22T00:47:49.463Z,0.99
2019-03-22T00:50:16.365Z,0.96
2019-03-22T00:52:43.229Z,0.94
2019-03-22T00:55:14.909Z,0.90
2019-03-22T00:57:41.815Z,0.88
2019-03-22T01:00:08.806Z,0.88
2019-03-22T01:02:35.769Z,0.88
2019-03-22T01:05:02.856Z,0.89
2019-03-22T01:07:29.811Z,0.87
2019-03-22T01:09:56.686Z,0.82
2019-03-22T01:12:23.554Z,0.79
2019-03-22T01:14:50.513Z,0.75
2019-03-22T01:17:17.375Z,0.75
2019-03-22T01:19:44.252Z,0.77
2019-03-22T01:22:11.101Z,0.74
2019-03-22T01:24:37.963Z,0.73
2019-03-22T01:27:04.832Z,0.72
2019-03-22T01:29:32.101Z,0.71
2019-03-22T01:31:59.065Z,0.71
2019-03-22T01:34:25.918Z,0.70
2019-03-22T01:36:52.780Z,0.68
2019-03-22T01:39:19.748Z,0.62
2019-03-22T01:41:46.704Z,0.59
2019-03-22T01:44:13.658Z,0.56
2019-03-22T01:46:40.528Z,0.55
2019-03-22T01:49:07.413Z,0.57
2019-03-22T01:51:34.304Z,0.55
2019-03-22T01:54:01.170Z,0.53
2019-03-22T01:56:28.013Z,0.46
2019-03-22T01:58:54.869Z,0.43
2019-03-22T02:01:21.736Z,0.42
2019-03-22T02:03:48.610Z,0.42
2019-03-22T02:06:15.462Z,0.41
2019-03-22T02:08:42.328Z,0.41
2019-03-22T02:11:09.180Z,0.40
2019-03-22T02:13:36.036Z,0.42
2019-03-22T02:16:02.896Z,0.43
2019-03-22T02:18:29.757Z,0.42
2019-03-22T02:20:56.616Z,0.39
2019-03-22T02:23:23.586Z,0.38
2019-03-22T02:25:50.538Z,0.33
2019-03-22T02:28:17.426Z,0.32
2019-03-22T02:30:44.296Z,0.29
2019-03-22T02:33:11.197Z,0.27
2019-03-22T02:35:38.152Z,0.28
2019-03-22T02:38:05.050Z,0.29
2019-03-22T02:40:31.904Z,0.30
2019-03-22T02:42:58.809Z,0.28
2019-03-22T02:45:25.759Z,0.24
2019-03-22T02:47:52.631Z,0.21
2019-03-22T02:50:20.441Z,0.20
2019-03-22T02:52:58.165Z,0.18
2019-03-22T02:55:25.017Z,0.19
2019-03-22T02:57:51.891Z,0.21
2019-03-22T03:00:18.828Z,0.20
2019-03-22T03:02:45.686Z,0.17
2019-03-22T03:05:12.564Z,0.16
2019-03-22T03:07:39.526Z,0.13
2019-03-22T03:10:08.695Z,0.11
2019-03-22T03:12:35.701Z,0.12
2019-03-22T03:15:02.669Z,0.12
2019-03-22T03:17:29.530Z,0.10
2019-03-22T03:19:56.401Z,0.08
2019-03-22T03:22:23.365Z,0.08
2019-03-22T03:24:50.226Z,0.05
2019-03-22T03:27:17.182Z,0.00
2019-03-22T03:29:44.146Z,-0.06
2019-03-22T03:32:11.095Z,-0.13
2019-03-22T03:34:37.987Z,-0.15
2019-03-22T03:37:04.939Z,-0.12
2019-03-22T03:39:31.925Z,-0.12
2019-03-22T03:41:58.833Z,-0.14
2019-03-22T03:44:25.713Z,-0.17
2019-03-22T03:46:52.673Z,-0.18
2019-03-22T03:49:19.735Z,-0.19
2019-03-22T03:51:46.625Z,-0.20
2019-03-22T03:54:13.502Z,-0.21
2019-03-22T03:56:40.446Z,-0.25
2019-03-22T03:59:07.347Z,-0.26
2019-03-22T04:01:34.304Z,-0.25
2019-03-22T04:04:01.182Z,-0.27
2019-03-22T04:06:28.128Z,-0.27
2019-03-22T04:08:55.016Z,-0.27
2019-03-22T04:11:21.970Z,-0.28
2019-03-22T04:13:48.934Z,-0.27
2019-03-22T04:16:15.802Z,-0.28
2019-03-22T04:18:42.783Z,-0.28
2019-03-22T04:21:09.740Z,-0.30
2019-03-22T04:23:36.628Z,-0.33
2019-03-22T04:26:03.573Z,-0.33
2019-03-22T04:28:30.429Z,-0.33
2019-03-22T04:30:57.309Z,-0.31
2019-03-22T04:33:24.248Z,-0.36
2019-03-22T04:35:51.124Z,-0.38
2019-03-22T04:38:17.999Z,-0.37
2019-03-22T04:40:44.960Z,-0.34
2019-03-22T04:43:11.816Z,-0.36
2019-03-22T04:45:38.690Z,-0.41
2019-03-22T04:48:24.272Z,-0.41
2019-03-22T04:50:51.128Z,-0.40
2019-03-22T04:53:17.988Z,-0.37
2019-03-22T04:55:44.876Z,-0.36
2019-03-22T04:58:11.728Z,-0.38
2019-03-22T05:00:38.686Z,-0.39
2019-03-22T05:03:05.579Z,-0.44
2019-03-22T05:05:32.440Z,-0.47
2019-03-22T05:07:59.325Z,-0.50
2019-03-22T05:10:26.284Z,-0.51
2019-03-22T05:12:53.184Z,-0.52
2019-03-22T05:15:20.046Z,-0.55
2019-03-22T05:17:47.068Z,-0.56
2019-03-22T05:20:13.947Z,-0.57
2019-03-22T05:22:40.890Z,-0.58
2019-03-22T05:28:02.996Z,-0.54
2019-03-22T05:30:49.142Z,-0.50
2019-03-22T05:33:16.104Z,-0.46
2019-03-22T05:35:43.070Z,-0.34
2019-03-22T05:38:10.031Z,0.67
2019-03-22T05:40:36.917Z,1.84
2019-03-22T05:43:03.815Z,2.72
2019-03-22T05:45:30.784Z,3.41
2019-03-22T05:47:57.767Z,3.89
2019-03-22T05:50:24.640Z,4.33
2019-03-22T05:52:52.799Z,4.73
2019-03-22T05:55:19.782Z,4.98
2019-03-22T05:57:46.773Z,5.11
2019-03-22T06:02:53.523Z,5.37
2019-03-22T06:05:20.512Z,5.41
2019-03-22T06:07:47.455Z,5.12
2019-03-22T06:10:15.040Z,4.73
2019-03-22T06:12:41.923Z,4.85
2019-03-22T06:15:08.889Z,5.11
2019-03-22T06:17:35.771Z,5.37
2019-03-22T06:20:02.833Z,5.41
2019-03-22T06:22:29.703Z,5.42
2019-03-22T06:24:56.599Z,5.26
2019-03-22T06:27:23.543Z,5.06
2019-03-22T06:29:54.533Z,4.93
2019-03-22T06:32:25.440Z,4.97
2019-03-22T06:34:52.307Z,4.97
2019-03-22T06:37:19.198Z,5.15
2019-03-22T06:39:46.050Z,5.06
2019-03-22T06:42:12.943Z,4.99
2019-03-22T06:44:39.897Z,4.85
2019-03-22T06:47:06.772Z,4.72
2019-03-22T06:49:33.650Z,4.63
2019-03-22T06:52:00.660Z,4.73
2019-03-22T06:54:31.920Z,4.78
2019-03-22T06:56:56.304Z,4.84
2019-03-22T06:59:23.185Z,4.88
2019-03-22T07:01:50.194Z,4.97
2019-03-22T07:04:17.162Z,5.08
2019-03-22T07:06:44.013Z,5.12
2019-03-22T07:09:10.888Z,5.18
2019-03-22T07:11:37.970Z,5.15
2019-03-22T07:14:05.012Z,5.16
2019-03-22T07:16:31.860Z,5.21
2019-03-22T07:18:58.728Z,5.03
2019-03-22T07:21:25.603Z,4.82
2019-03-22T07:23:52.452Z,4.68
2019-03-22T07:26:19.326Z,4.62
2019-03-22T07:28:46.186Z,4.61
2019-03-22T07:31:13.102Z,4.63
2019-03-22T07:33:40.142Z,4.66
2019-03-22T07:36:07.100Z,4.70
2019-03-22T07:38:33.976Z,4.66
2019-03-22T07:41:00.962Z,4.64
2019-03-22T07:43:27.828Z,4.62
2019-03-22T07:45:54.778Z,4.59
2019-03-22T07:48:21.733Z,4.59
2019-03-22T07:50:48.607Z,4.63
2019-03-22T07:53:15.481Z,4.66
2019-03-22T07:55:42.387Z,4.68
2019-03-22T07:58:09.261Z,4.72
2019-03-22T08:00:36.123Z,4.78
2019-03-22T08:03:03.008Z,4.87
2019-03-22T08:05:29.871Z,4.97
2019-03-22T08:07:56.720Z,5.09
2019-03-22T08:10:23.609Z,5.20
2019-03-22T08:12:50.483Z,5.29
2019-03-22T08:15:36.565Z,5.37
2019-03-22T08:18:03.460Z,5.49
2019-03-22T08:20:30.453Z,5.64
2019-03-22T08:23:16.985Z,5.76
2019-03-22T08:25:43.963Z,5.85
2019-03-22T08:28:10.931Z,5.97
2019-03-22T08:30:43.093Z,6.10
2019-03-22T08:33:06.624Z,6.20
2019-03-22T08:35:33.587Z,6.27
2019-03-22T08:38:00.457Z,6.36
2019-03-22T08:40:27.433Z,6.46
2019-03-22T08:42:54.386Z,6.58
2019-03-22T08:45:21.331Z,6.70
2019-03-22T08:47:48.190Z,6.83
2019-03-22T08:50:15.049Z,6.94
2019-03-22T08:52:42.001Z,7.12
2019-03-22T08:55:11.429Z,7.30
2019-03-22T08:57:38.375Z,7.55
2019-03-22T09:00:06.026Z,7.74
2019-03-22T09:02:32.983Z,7.91
2019-03-22T09:04:59.865Z,8.02
2019-03-22T09:07:26.718Z,8.04
2019-03-22T09:09:53.560Z,8.16
2019-03-22T09:12:20.463Z,8.38
2019-03-22T09:14:47.460Z,8.49
2019-03-22T09:17:14.398Z,8.55
2019-03-22T09:19:41.303Z,8.61
2019-03-22T09:22:08.310Z,8.70
2019-03-22T09:24:39.325Z,8.75
2019-03-22T09:27:10.041Z,8.82
2019-03-22T09:29:36.962Z,8.91
2019-03-22T09:32:03.977Z,8.97
2019-03-22T09:34:33.958Z,9.04
2019-03-22T09:37:08.873Z,9.17
2019-03-22T09:39:41.312Z,9.32
2019-03-22T09:42:08.210Z,9.45
2019-03-22T09:44:43.312Z,9.57
2019-03-22T09:47:10.518Z,9.71
2019-03-22T09:49:37.491Z,9.87
2019-03-22T09:52:04.380Z,9.98
2019-03-22T09:54:31.344Z,10.12
2019-03-22T09:56:58.370Z,10.25
2019-03-22T09:59:25.285Z,10.38
2019-03-22T10:01:52.146Z,10.50
2019-03-22T10:04:19.118Z,10.63
2019-03-22T10:06:46.146Z,10.78
2019-03-22T10:09:13.068Z,10.93
2019-03-22T10:11:39.946Z,11.06
2019-03-22T10:14:07.070Z,11.23
2019-03-22T10:16:33.989Z,11.36
2019-03-22T10:19:00.857Z,11.49
2019-03-22T10:21:27.818Z,11.62
2019-03-22T10:23:54.676Z,11.75
2019-03-22T10:26:21.549Z,11.91
2019-03-22T10:28:48.551Z,12.12
2019-03-22T10:31:15.570Z,12.32
2019-03-22T10:33:42.493Z,12.49
2019-03-22T10:36:09.483Z,12.67
2019-03-22T10:38:36.425Z,12.91
2019-03-22T10:41:03.472Z,13.14
2019-03-22T10:43:30.413Z,13.40
2019-03-22T10:45:57.393Z,13.67
2019-03-22T10:48:24.365Z,13.90
2019-03-22T10:50:51.327Z,14.18
2019-03-22T10:53:18.198Z,14.46
2019-03-22T10:55:45.060Z,14.75
2019-03-22T10:58:20.772Z,14.98
2019-03-22T11:00:40.709Z,15.25
2019-03-22T11:03:07.600Z,15.53
2019-03-22T11:05:34.579Z,15.79
2019-03-22T11:08:01.548Z,16.25
2019-03-22T11:10:28.414Z,16.47
2019-03-22T11:12:55.276Z,16.68
2019-03-22T11:15:23.915Z,16.89
2019-03-22T11:17:50.897Z,17.14
2019-03-22T11:20:17.750Z,17.26
2019-03-22T11:22:44.625Z,17.42
2019-03-22T11:25:14.438Z,17.54
2019-03-22T11:27:41.300Z,17.50
2019-03-22T11:30:24.813Z,17.40
2019-03-22T11:32:51.834Z,17.46
2019-03-22T11:35:18.844Z,17.72
2019-03-22T11:37:45.852Z,18.01
2019-03-22T11:40:32.032Z,18.16
2019-03-22T11:43:08.262Z,18.50
2019-03-22T11:45:33.971Z,18.82
2019-03-22T11:48:00.932Z,18.98
2019-03-22T11:50:28.995Z,19.07
2019-03-22T11:53:06.436Z,19.21
2019-03-22T11:55:33.310Z,19.31
2019-03-22T11:58:00.184Z,19.19
2019-03-22T12:00:27.040Z,19.14
2019-03-22T12:02:53.923Z,19.06
2019-03-22T12:05:20.795Z,18.83
2019-03-22T12:07:47.699Z,18.76
2019-03-22T12:10:15.458Z,18.94
2019-03-22T12:12:42.381Z,19.02
2019-03-22T12:15:09.337Z,19.19
2019-03-22T12:17:36.294Z,19.44
2019-03-22T12:20:04.252Z,19.81
2019-03-22T12:22:31.202Z,20.19
2019-03-22T12:24:58.105Z,20.49
2019-03-22T12:27:25.080Z,20.56
2019-03-22T12:29:53.409Z,20.60
2019-03-22T12:32:20.456Z,20.66
2019-03-22T12:34:47.363Z,20.81
2019-03-22T12:37:14.345Z,21.02
2019-03-22T12:39:42.019Z,21.15
2019-03-22T12:42:20.031Z,21.05
2019-03-22T12:44:46.930Z,20.97
2019-03-22T12:47:13.797Z,20.81
2019-03-22T12:49:40.774Z,20.68
2019-03-22T12:52:07.753Z,20.62
2019-03-22T12:54:34.617Z,20.69
2019-03-22T12:57:01.505Z,20.76
2019-03-22T12:59:28.407Z,20.84
2019-03-22T13:01:55.388Z,20.86
2019-03-22T13:04:22.269Z,21.01
2019-03-22T13:06:49.259Z,20.97
2019-03-22T13:09:16.125Z,21.36
2019-03-22T13:11:42.997Z,21.74
2019-03-22T13:14:09.887Z,22.04
2019-03-22T13:16:36.757Z,22.10
2019-03-22T13:19:03.716Z,22.17
2019-03-22T13:21:30.576Z,22.26
2019-03-22T13:23:57.450Z,22.27
2019-03-22T13:26:24.321Z,22.23
2019-03-22T13:28:51.210Z,22.20
2019-03-22T13:31:18.100Z,22.14
2019-03-22T13:33:45.088Z,22.19
2019-03-22T13:36:12.020Z,22.28
2019-03-22T13:38:38.920Z,22.31
2019-03-22T13:41:05.775Z,22.17
2019-03-22T13:43:32.674Z,22.36
2019-03-22T13:45:59.546Z,22.55
2019-03-22T13:48:26.430Z,22.48
2019-03-22T13:50:53.405Z,22.52
2019-03-22T13:53:20.372Z,22.68
2019-03-22T13:55:47.236Z,22.76
2019-03-22T13:58:14.198Z,22.92
2019-03-22T14:00:41.045Z,22.97
2019-03-22T14:03:07.938Z,22.97
2019-03-22T14:05:34.826Z,22.83
2019-03-22T14:08:01.689Z,22.28
2019-03-22T14:10:32.412Z,22.22
2019-03-22T14:12:59.395Z,22.31
2019-03-22T14:15:26.302Z,22.62
2019-03-22T14:17:53.191Z,22.89
2019-03-22T14:20:20.098Z,22.98
2019-03-22T14:22:47.046Z,22.97
2019-03-22T14:25:16.479Z,22.97
2019-03-22T14:27:43.349Z,23.07
2019-03-22T14:30:10.327Z,22.91
2019-03-22T14:32:37.183Z,22.77
2019-03-22T14:35:05.199Z,22.51
2019-03-22T14:37:32.071Z,22.35
2019-03-22T14:39:58.961Z,22.21
2019-03-22T14:42:25.850Z,22.16
2019-03-22T14:44:52.828Z,22.21
2019-03-22T14:47:19.777Z,22.28
2019-03-22T14:49:46.690Z,22.08
2019-03-22T14:52:13.645Z,21.94
2019-03-22T14:54:40.531Z,21.84
2019-03-22T14:57:07.403Z,21.80
2019-03-22T14:59:34.305Z,22.07
2019-03-22T15:02:01.192Z,22.38
2019-03-22T15:04:28.139Z,22.62
2019-03-22T15:06:55.017Z,22.68
2019-03-22T15:09:21.909Z,22.71
2019-03-22T15:11:48.809Z,22.74
2019-03-22T15:14:33.614Z,22.70
2019-03-22T15:17:21.937Z,22.53
2019-03-22T15:20:11.078Z,22.49
2019-03-22T15:22:57.524Z,22.59
2019-03-22T15:25:43.876Z,22.75
2019-03-22T15:28:30.315Z,22.87
2019-03-22T15:31:16.662Z,22.75
2019-03-22T15:34:04.750Z,22.69
2019-03-22T15:36:57.897Z,22.74
2019-03-22T15:39:44.462Z,22.81
2019-03-22T15:42:11.382Z,22.59
2019-03-22T15:44:38.353Z,22.18
2019-03-22T15:47:05.354Z,21.70
2019-03-22T15:49:32.241Z,21.30
2019-03-22T15:51:59.156Z,20.94
2019-03-22T15:54:26.129Z,20.50
2019-03-22T15:56:53.152Z,20.09
2019-03-22T15:59:20.037Z,19.67
2019-03-22T16:01:46.937Z,19.29
2019-03-22T16:04:13.910Z,18.94
2019-03-22T16:06:40.812Z,18.67
2019-03-22T16:09:07.788Z,18.63
2019-03-22T16:11:34.708Z,18.76
2019-03-22T16:14:01.688Z,18.84
2019-03-22T16:16:28.676Z,18.92
2019-03-22T16:18:55.538Z,18.87
2019-03-22T16:21:22.414Z,18.69
2019-03-22T16:23:49.432Z,18.42
2019-03-22T16:29:18.104Z,18.08
2019-03-22T16:31:45.085Z,17.97
2019-03-22T16:34:12.072Z,17.89
2019-03-22T16:36:39.074Z,17.74
2019-03-22T16:39:07.228Z,17.48
2019-03-22T16:41:34.233Z,17.15
2019-03-22T16:44:01.224Z,16.76
2019-03-22T16:46:28.119Z,16.30
2019-03-22T16:48:55.005Z,15.88
2019-03-22T16:51:21.968Z,15.56
2019-03-22T16:53:48.914Z,15.24
2019-03-22T16:56:18.006Z,14.96
2019-03-22T16:58:45.011Z,14.72
2019-03-22T17:01:11.877Z,14.47
2019-03-22T17:03:38.753Z,14.25
2019-03-22T17:06:05.641Z,14.01
2019-03-22T17:08:32.638Z,13.80
2019-03-22T17:10:59.512Z,13.63
2019-03-22T17:13:26.401Z,13.45
2019-03-22T17:15:53.383Z,13.26
2019-03-22T17:18:20.255Z,13.06
2019-03-22T17:20:47.166Z,12.89
2019-03-22T17:23:14.172Z,12.69
2019-03-22T17:25:41.149Z,12.53
2019-03-22T17:28:08.058Z,12.39
2019-03-22T17:30:34.944Z,12.25
2019-03-22T17:33:01.887Z,12.11
2019-03-22T17:35:28.865Z,11.96
2019-03-22T17:37:55.782Z,11.83
2019-03-22T17:40:22.780Z,11.72
2019-03-22T17:42:49.656Z,11.63
2019-03-22T17:45:16.551Z,11.55
2019-03-22T17:47:43.555Z,11.47
2019-03-22T17:50:10.607Z,11.38
2019-03-22T17:52:37.498Z,11.30
2019-03-22T17:55:04.735Z,11.16
2019-03-22T17:57:31.725Z,10.99
2019-03-22T17:59:58.771Z,10.84
2019-03-22T18:02:25.737Z,10.71
2019-03-22T18:04:52.632Z,10.65
2019-03-22T18:07:19.616Z,10.58
2019-03-22T18:09:46.601Z,10.47
2019-03-22T18:12:13.494Z,10.35
2019-03-22T18:14:40.474Z,10.25
2019-03-22T18:17:07.457Z,10.14
2019-03-22T18:19:34.449Z,10.06
2019-03-22T18:22:01.430Z,10.02
2019-03-22T18:24:28.376Z,9.96
2019-03-22T18:26:55.262Z,9.90
2019-03-22T18:29:22.383Z,9.85
2019-03-22T18:31:49.261Z,9.78
2019-03-22T18:34:16.138Z,9.73
2019-03-22T18:36:43.146Z,9.65
2019-03-22T18:39:10.172Z,9.58
2019-03-22T18:41:37.114Z,9.49
2019-03-22T18:44:04.040Z,9.41
2019-03-22T18:46:31.003Z,9.35
2019-03-22T18:48:58.001Z,9.29
2019-03-22T18:51:24.892Z,9.22
2019-03-22T18:53:51.915Z,9.16
2019-03-22T18:56:18.781Z,9.10
2019-03-22T18:58:45.664Z,9.02
2019-03-22T19:01:12.554Z,8.96
2019-03-22T19:03:39.790Z,8.88
2019-03-22T19:06:06.713Z,8.81
2019-03-22T19:08:33.698Z,8.71
2019-03-22T19:11:00.673Z,8.62
2019-03-22T19:13:30.845Z,8.53
2019-03-22T19:15:56.317Z,8.45
2019-03-22T19:18:23.184Z,8.38
2019-03-22T19:20:50.164Z,8.31
2019-03-22T19:23:17.044Z,8.26
2019-03-22T19:25:43.954Z,8.19
2019-03-22T19:28:10.849Z,8.12
2019-03-22T19:30:37.840Z,8.08
2019-03-22T19:33:04.822Z,8.05
2019-03-22T19:35:31.700Z,8.02
2019-03-22T19:37:58.749Z,7.96
2019-03-22T19:40:25.727Z,7.91
2019-03-22T19:42:52.729Z,7.87
2019-03-22T19:45:19.694Z,7.80
2019-03-22T19:47:46.576Z,7.76
2019-03-22T19:50:13.588Z,7.70
2019-03-22T19:52:42.759Z,7.64
2019-03-22T19:55:16.805Z,7.57
2019-03-22T19:57:43.733Z,7.51
2019-03-22T20:00:10.627Z,7.44
2019-03-22T20:02:37.611Z,7.38
2019-03-22T20:05:05.349Z,7.32
2019-03-22T20:07:32.336Z,7.26
2019-03-22T20:09:59.345Z,7.20
2019-03-22T20:12:26.321Z,7.15
2019-03-22T20:14:53.227Z,7.13
2019-03-22T20:17:20.191Z,7.09
2019-03-22T20:19:47.078Z,7.05
2019-03-22T20:22:14.014Z,6.98
2019-03-22T20:24:40.979Z,6.92
2019-03-22T20:27:07.892Z,6.90
2019-03-22T20:29:34.879Z,6.85
2019-03-22T20:32:01.886Z,6.81
2019-03-22T20:34:28.860Z,6.77
2019-03-22T20:36:55.897Z,6.73
2019-03-22T20:39:22.887Z,6.68
2019-03-22T20:41:49.893Z,6.62
2019-03-22T20:44:16.884Z,6.55
2019-03-22T20:46:43.887Z,6.49
2019-03-22T20:49:10.849Z,6.46
2019-03-22T20:51:37.859Z,6.44
2019-03-22T20:54:04.861Z,6.42
2019-03-22T20:56:31.845Z,6.38
2019-03-22T20:58:58.853Z,6.33
2019-03-22T21:01:25.808Z,6.30
2019-03-22T21:03:52.722Z,6.26
2019-03-22T21:06:19.706Z,6.23
2019-03-22T21:08:46.816Z,6.21
2019-03-22T21:11:13.692Z,6.18
2019-03-22T21:13:40.573Z,6.15
2019-03-22T21:16:07.439Z,6.11
2019-03-22T21:18:34.313Z,6.09
2019-03-22T21:21:01.190Z,6.06
2019-03-22T21:23:35.887Z,6.03
2019-03-22T21:26:03.272Z,6.00
2019-03-22T21:28:30.180Z,5.97
2019-03-22T21:30:57.137Z,5.93
2019-03-22T21:33:24.030Z,5.87
2019-03-22T21:35:51.017Z,5.82
2019-03-22T21:38:17.864Z,5.73
2019-03-22T21:40:44.758Z,5.67
2019-03-22T21:43:11.653Z,5.65
2019-03-22T21:45:38.572Z,5.61
2019-03-22T21:48:05.467Z,5.60
2019-03-22T21:50:32.517Z,5.60
2019-03-22T21:52:59.505Z,5.58
2019-03-22T21:55:26.463Z,5.58
2019-03-22T21:57:53.438Z,5.56
2019-03-22T22:00:20.324Z,5.53
2019-03-22T22:02:47.228Z,5.51
2019-03-22T22:05:14.127Z,5.47
2019-03-22T22:07:41.025Z,5.43
2019-03-22T22:13:10.098Z,5.34
2019-03-22T22:15:37.264Z,5.25
2019-03-22T22:18:04.135Z,5.20
2019-03-22T22:20:31.017Z,5.16
2019-03-22T22:22:58.828Z,5.13
2019-03-22T22:25:25.846Z,5.11
2019-03-22T22:27:52.721Z,5.07
2019-03-22T22:30:19.587Z,5.05
2019-03-22T22:32:46.547Z,5.01
2019-03-22T22:35:13.448Z,4.98
2019-03-22T22:37:40.318Z,4.96
2019-03-22T22:40:09.780Z,4.95
2019-03-22T22:42:36.727Z,4.94
2019-03-22T22:45:03.946Z,4.91
2019-03-22T22:47:30.830Z,4.89
2019-03-22T22:49:57.706Z,4.87
2019-03-22T22:52:24.596Z,4.85
2019-03-22T22:54:51.558Z,4.83
2019-03-22T22:57:18.438Z,4.81
2019-03-22T22:59:45.312Z,4.78
2019-03-22T23:02:12.191Z,4.75
2019-03-22T23:04:39.062Z,4.73
2019-03-22T23:07:05.948Z,4.69
2019-03-22T23:09:32.832Z,4.64
2019-03-22T23:12:00.586Z,4.60
2019-03-22T23:14:27.444Z,4.56
2019-03-22T23:16:54.305Z,4.54
2019-03-22T23:19:21.148Z,4.48
2019-03-22T23:21:48.026Z,4.45
2019-03-22T23:24:14.889Z,4.42
2019-03-22T23:26:41.766Z,4.40
2019-03-22T23:29:08.736Z,4.37
2019-03-22T23:31:35.674Z,4.33
2019-03-22T23:34:02.557Z,4.30
2019-03-22T23:36:29.420Z,4.26
2019-03-22T23:38:56.409Z,4.21
2019-03-22T23:41:23.289Z,4.16
2019-03-22T23:43:50.185Z,4.11
2019-03-22T23:46:17.053Z,4.07
2019-03-22T23:48:43.930Z,4.05
2019-03-22T23:51:10.793Z,4.02
2019-03-22T23:53:37.648Z,4.00
2019-03-22T23:56:04.537Z,3.94
2019-03-22T23:58:31.539Z,3.93
